METAR Data
IDs: Format: Raw Decoded Include TAF

Data at: 0158 UTC 25 Mar 2019

KDEH 250155Z AUTO 01006KT 10SM OVC060 07/05 A3012 RMK AO2
KDEH 250135Z AUTO 01005KT 10SM OVC060 07/05 A3012 RMK AO2
KDEH 250115Z AUTO 03003KT 10SM OVC055 08/05 A3011 RMK AO2
KDEH 250055Z AUTO VRB03KT 10SM OVC055 08/05 A3010 RMK AO2
KDEH 250035Z AUTO 03005KT 10SM OVC050 08/05 A3010 RMK AO2
KDEH 250015Z AUTO 01005KT 10SM OVC049 08/05 A3009 RMK AO2
KDEH 242355Z AUTO 03003KT 10SM OVC049 08/05 A3008 RMK AO2
KDEH 242335Z AUTO 04004KT 10SM OVC045 08/05 A3008 RMK AO2
KDEH 242315Z AUTO VRB03KT 10SM OVC043 09/05 A3007 RMK AO2
KDEH 242255Z AUTO 04005G10KT 10SM OVC042 09/05 A3007 RMK AO2
KDEH 242235Z AUTO VRB06KT 10SM OVC042 09/05 A3006 RMK AO2
KDEH 242215Z AUTO 02006KT 10SM OVC042 09/05 A3006 RMK AO2
KDEH 242155Z AUTO 06005G13KT 10SM OVC043 10/04 A3006 RMK AO2
KDEH 242135Z AUTO 05008KT 010V070 10SM OVC043 10/04 A3005 RMK AO2
KDEH 242115Z AUTO 05004G11KT 10SM OVC042 10/05 A3005 RMK AO2
KDEH 242055Z AUTO 04006KT 10SM OVC041 10/05 A3005 RMK AO2
KDEH 242035Z AUTO 06006KT 10SM OVC039 10/06 A3005 RMK AO2
KDEH 242015Z AUTO 05006KT 10SM OVC036 09/06 A3004 RMK AO2
KDEH 241955Z AUTO VRB05G10KT 10SM OVC035 09/06 A3004 RMK AO2
KDEH 241935Z AUTO 00000KT 10SM OVC036 09/07 A3004 RMK AO2
KDEH 241915Z AUTO 06006KT 10SM SCT029 BKN035 09/07 A3004 RMK AO2
KDEH 241855Z AUTO 04004KT 10SM SCT026 OVC035 08/07 A3004 RMK AO2
KDEH 241835Z AUTO 06004KT 10SM OVC023 08/07 A3005 RMK AO2
KDEH 241815Z AUTO VRB03KT 10SM OVC020 07/07 A3005 RMK AO2
KDEH 241755Z AUTO 04005KT 10SM OVC019 07/07 A3005 RMK AO2
KDEH 241735Z AUTO 05007KT 10SM BKN018 OVC033 07/07 A3005 RMK AO2
KDEH 241715Z AUTO 05005KT 10SM BKN016 OVC042 07/07 A3006 RMK AO2
KDEH 241655Z AUTO VRB05G11KT 10SM SCT017 BKN042 OVC050 07/07 A3006 RMK AO2
KDEH 241635Z AUTO VRB05KT 10SM BKN014 BKN050 OVC070 06/06 A3006 RMK AO2
KDEH 241615Z AUTO 06005KT 10SM BKN013 BKN049 OVC070 06/06 A3007 RMK AO2
KDEH 241555Z AUTO 06008KT 10SM OVC013 06/06 A3006 RMK AO2
KDEH 241535Z AUTO VRB04KT 9SM SCT013 BKN049 06/05 A3007 RMK AO2
KDEH 241515Z AUTO 05003KT 9SM BKN048 05/05 A3007 RMK AO2
KDEH 241455Z AUTO 03004KT 6SM -RA BKN046 05/05 A3007 RMK AO2 P0001
KDEH 241435Z AUTO 03005KT 6SM -RA SCT046 SCT050 04/04 A3007 RMK AO2
KDEH 241415Z AUTO 05005KT 3SM -RA FEW042 BKN049 05/04 A3007 RMK AO2
KDEH 241355Z AUTO 05005KT 10SM OVC047 05/04 A3007 RMK AO2
KDEH 241335Z AUTO 00000KT 9SM OVC047 04/04 A3007 RMK AO2
KDEH 241315Z AUTO 00000KT 10SM OVC047 04/04 A3006 RMK AO2
KDEH 241255Z AUTO 09003KT 10SM OVC046 04/04 A3006 RMK AO2
KDEH 241235Z AUTO 00000KT 10SM OVC045 04/04 A3006 RMK AO2
KDEH 241215Z AUTO 00000KT 10SM OVC045 04/04 A3005 RMK AO2
KDEH 241155Z AUTO 11003KT 10SM OVC043 04/04 A3005 RMK AO2
KDEH 241135Z AUTO 00000KT 10SM OVC044 05/04 A3005 RMK AO2
KDEH 241115Z AUTO 00000KT 10SM OVC047 04/04 A3005 RMK AO2
KDEH 241055Z AUTO 00000KT 10SM OVC049 05/04 A3005 RMK AO2
KDEH 241035Z AUTO 00000KT 10SM OVC050 05/05 A3006 RMK AO2
KDEH 241015Z AUTO 00000KT 10SM OVC055 05/05 A3006 RMK AO2
KDEH 240955Z AUTO 17005KT 10SM BKN055 OVC070 05/05 A3007 RMK AO2
KDEH 240935Z AUTO 17005KT 10SM BKN055 OVC070 05/04 A3007 RMK AO2
KDEH 240915Z AUTO 15004KT 10SM BKN055 OVC060 05/04 A3008 RMK AO2
KDEH 240855Z AUTO 16005KT 10SM SCT047 OVC060 05/04 A3008 RMK AO2
KDEH 240835Z AUTO 16004KT 10SM FEW032 OVC047 05/03 A3008 RMK AO2
KDEH 240815Z AUTO 16004KT 10SM SCT033 OVC045 05/02 A3009 RMK AO2
KDEH 240755Z AUTO 00000KT 10SM SCT034 OVC047 05/02 A3010 RMK AO2
KDEH 240735Z AUTO 15003KT 10SM -UP SCT034 SCT049 OVC060 06/02 A3010 RMK AO2
KDEH 240715Z AUTO 16004KT 10SM FEW031 SCT047 OVC060 05/02 A3010 RMK AO2
KDEH 240655Z AUTO 00000KT 10SM FEW034 BKN045 OVC070 05/02 A3010 RMK AO2
KDEH 240635Z AUTO 00000KT 10SM SCT046 BKN075 OVC110 06/01 A3011 RMK AO2
KDEH 240615Z AUTO 13003KT 10SM SCT075 OVC100 06/02 A3011 RMK AO2
KDEH 240555Z AUTO 14004KT 10SM FEW075 BKN100 OVC120 06/02 A3011 RMK AO2
KDEH 240535Z AUTO 00000KT 10SM FEW075 OVC095 06/02 A3011 RMK AO2
KDEH 240515Z AUTO 13004KT 10SM OVC095 06/02 A3012 RMK AO2
KDEH 240455Z AUTO 14005KT 10SM OVC095 06/02 A3012 RMK AO2
KDEH 240435Z AUTO 15005KT 10SM OVC095 06/02 A3012 RMK AO2
KDEH 240415Z AUTO 16004KT 10SM BKN100 OVC120 06/02 A3012 RMK AO2
KDEH 240355Z AUTO 15005KT 10SM OVC100 07/02 A3012 RMK AO2
KDEH 240335Z AUTO 14004KT 10SM FEW065 SCT075 OVC110 07/02 A3011 RMK AO2
KDEH 240315Z AUTO 14004KT 10SM FEW065 BKN075 OVC090 07/02 A3012 RMK AO2
KDEH 240255Z AUTO 15004KT 10SM SCT080 BKN090 OVC120 07/02 A3012 RMK AO2
KDEH 240235Z AUTO 14004KT 10SM BKN100 OVC120 07/02 A3012 RMK AO2
KDEH 240215Z AUTO 15004KT 10SM OVC100 07/02 A3012 RMK AO2
KDEH 240155Z AUTO 15005KT 10SM OVC095 07/03 A3013 RMK AO2
KDEH 240135Z AUTO 16003KT 10SM OVC100 07/03 A3013 RMK AO2
KDEH 240115Z AUTO 13003KT 10SM BKN110 08/03 A3013 RMK AO2
KDEH 240055Z AUTO 11005KT 10SM SCT100 BKN120 08/03 A3013 RMK AO2
KDEH 240035Z AUTO 00000KT 10SM FEW120 08/03 A3013 RMK AO2
KDEH 240015Z AUTO 17003KT 10SM CLR 09/02 A3014 RMK AO2
KDEH 232355Z AUTO 18004KT 10SM CLR 09/02 A3014 RMK AO2
KDEH 232335Z AUTO 19003KT 10SM CLR 10/02 A3015 RMK AO2
KDEH 232315Z AUTO 20003KT 10SM CLR 10/02 A3015 RMK AO2
KDEH 232255Z AUTO 19005KT 10SM CLR 10/01 A3015 RMK AO2
KDEH 232235Z AUTO 18005KT 10SM CLR 10/01 A3015 RMK AO2
KDEH 232215Z AUTO VRB03KT 10SM CLR 10/01 A3015 RMK AO2
KDEH 232155Z AUTO 20007KT 10SM CLR 11/01 A3015 RMK AO2
KDEH 232135Z AUTO 22008KT 10SM CLR 11/01 A3016 RMK AO2
KDEH 232115Z AUTO VRB06KT 10SM CLR 11/02 A3016 RMK AO2
KDEH 232055Z AUTO VRB05G10KT 10SM CLR 11/01 A3017 RMK AO2
KDEH 232035Z AUTO VRB06KT 10SM CLR 11/01 A3017 RMK AO2
KDEH 232015Z AUTO 16006G11KT 10SM CLR 11/00 A3017 RMK AO2
KDEH 231955Z AUTO 21006KT 10SM CLR 11/01 A3018 RMK AO2
KDEH 231935Z AUTO VRB05G11KT 10SM CLR 11/01 A3018 RMK AO2
KDEH 231915Z AUTO 22004G11KT 10SM CLR 10/00 A3019 RMK AO2
KDEH 231855Z AUTO 20009G15KT 10SM CLR 10/M00 A3020 RMK AO2
KDEH 231835Z AUTO VRB06G12KT 10SM CLR 10/00 A3021 RMK AO2
KDEH 231815Z AUTO 17007KT 140V200 10SM CLR 09/00 A3021 RMK AO2
KDEH 231755Z AUTO 19010KT 10SM CLR 09/01 A3021 RMK AO2
KDEH 231735Z AUTO 19007G12KT 10SM CLR 08/01 A3022 RMK AO2
KDEH 231715Z AUTO 21007KT 180V240 10SM CLR 08/01 A3022 RMK AO2
KDEH 231655Z AUTO 19006KT 10SM CLR 07/01 A3022 RMK AO2
KDEH 231635Z AUTO VRB06KT 10SM CLR 06/02 A3023 RMK AO2
KDEH 231615Z AUTO VRB05KT 10SM CLR 06/02 A3023 RMK AO2
KDEH 231555Z AUTO VRB04KT 10SM CLR 05/01 A3023 RMK AO2
KDEH 231535Z AUTO 16006KT 10SM CLR 04/01 A3023 RMK AO2
KDEH 231515Z AUTO 16005KT 10SM CLR 03/01 A3023 RMK AO2
KDEH 231455Z AUTO 16006KT 10SM CLR 03/01 A3023 RMK AO2
KDEH 231435Z AUTO 19006KT 10SM CLR 02/00 A3024 RMK AO2
KDEH 231415Z AUTO 16005KT 10SM CLR 02/00 A3025 RMK AO2